Time;durP1;ratioP1;P1;durP2;ratioP2;P2;SDS_P1;SDS_P2;PMS_P1;PMS_P2;Temp;Humidity;BMP_temperature;BMP_pressure;BME280_temperature;BME280_humidity;BME280_pressure;Samples;Min_cycle;Max_cycle;Signal;HPM_P1;HPM_P2
2023/06/08 00:02:04;;;;;;;;;;;;;;;26.04;100.00;99098.44;4992360;28;19993;-49
2023/06/08 00:04:32;;;;;;;;;;;;;;;26.76;100.00;99079.28;4991754;28;19922;-49
2023/06/08 00:06:58;;;;;;;;;;;;;;;26.78;99.25;99057.03;4998882;28;19937;-50
2023/06/08 00:09:23;;;;;;;;;;;;;;;27.39;99.57;99060.63;4988573;28;19917;-50
2023/06/08 00:11:49;;;;;;;;;;;;;;;27.32;98.51;99054.31;4997313;28;19968;-52
2023/06/08 00:14:17;;;;;;;;;;;;;;;27.22;98.67;99059.72;4991742;28;20395;-51
2023/06/08 00:16:42;;;;;;;;;;;;;;;27.22;98.26;99059.72;4997264;28;20378;-49
2023/06/08 00:19:07;;;;;;;;;;;;;;;27.13;98.50;99057.97;4993618;28;19922;-52
2023/06/08 00:21:33;;;;;;;;;;;;;;;27.07;99.32;99061.22;4990961;28;19917;-51
2023/06/08 00:23:58;;;;;;;;;;;;;;;26.97;98.77;99060.47;4992843;28;19929;-53
2023/06/08 00:26:23;;;;;;;;;;;;;;;27.13;98.06;99061.44;5001459;28;19918;-50
2023/06/08 00:28:48;;;;;;;;;;;;;;;26.98;98.14;99068.28;4983437;28;19917;-52
2023/06/08 00:31:17;;;;;;;;;;;;;;;26.90;99.16;99068.19;4996387;28;19928;-49
2023/06/08 00:33:42;;;;;;;;;;;;;;;26.99;99.00;99061.16;4989431;28;19922;-52
2023/06/08 00:36:07;;;;;;;;;;;;;;;26.90;99.21;99063.72;4994421;28;19929;-50
2023/06/08 00:38:34;;;;;;;;;;;;;;;26.68;100.00;99078.22;4996524;28;19945;-49
2023/06/08 00:40:59;;;;;;;;;;;;;;;26.71;100.00;99071.81;4995755;28;19997;-50
2023/06/08 00:43:24;;;;;;;;;;;;;;;26.61;100.00;99071.88;5001043;28;20055;-50
2023/06/08 00:45:50;;;;;;;;;;;;;;;26.26;100.00;99077.91;4994156;28;19976;-52
2023/06/08 00:48:15;;;;;;;;;;;;;;;26.22;100.00;99068.63;4992746;28;19960;-50
2023/06/08 00:50:43;;;;;;;;;;;;;;;26.21;100.00;99067.78;4996286;28;20325;-50
2023/06/08 00:53:08;;;;;;;;;;;;;;;26.35;100.00;99068.28;4991483;28;19917;-52
2023/06/08 00:55:33;;;;;;;;;;;;;;;26.44;100.00;99057.66;4994763;28;19928;-49
2023/06/08 00:57:59;;;;;;;;;;;;;;;26.59;99.18;99052.69;4989276;28;19917;-51
2023/06/08 01:00:24;;;;;;;;;;;;;;;26.27;100.00;99069.84;4988941;28;19979;-51
2023/06/08 01:02:49;;;;;;;;;;;;;;;26.46;100.00;99068.06;4969764;28;20449;-49
2023/06/08 01:05:16;;;;;;;;;;;;;;;25.71;100.00;99078.69;4991088;28;19921;-51
2023/06/08 01:07:44;;;;;;;;;;;;;;;26.13;100.00;99072.16;4995310;28;19918;-51
2023/06/08 01:10:22;;;;;;;;;;;;;;;24.79;100.00;99103.72;4990050;28;19948;-51
2023/06/08 01:13:02;;;;;;;;;;;;;;;25.16;100.00;99074.06;4990763;28;19952;-48
2023/06/08 01:15:29;;;;;;;;;;;;;;;25.09;100.00;99077.38;5000312;28;19921;-49
2023/06/08 01:17:57;;;;;;;;;;;;;;;25.95;100.00;99064.16;4982674;28;19921;-48
2023/06/08 01:20:32;;;;;;;;;;;;;;;26.13;100.00;99062.41;4993636;28;19952;-48
2023/06/08 01:23:20;;;;;;;;;;;;;;;26.25;100.00;99050.69;4988123;28;19921;-49
2023/06/08 01:25:45;;;;;;;;;;;;;;;24.91;100.00;99085.16;4997454;28;20008;-51
2023/06/08 01:28:13;;;;;;;;;;;;;;;24.34;100.00;99098.06;4983988;28;19997;-49
2023/06/08 01:30:43;;;;;;;;;;;;;;;24.83;100.00;99085.84;4992956;28;19933;-50
2023/06/08 01:33:08;;;;;;;;;;;;;;;25.31;100.00;99068.38;4989680;28;19921;-49
2023/06/08 01:35:34;;;;;;;;;;;;;;;25.41;100.00;99072.66;4988385;28;19941;-52
2023/06/08 01:38:01;;;;;;;;;;;;;;;25.52;100.00;99055.00;4997709;28;19929;-51
2023/06/08 01:40:28;;;;;;;;;;;;;;;25.79;100.00;99047.13;4991080;28;19936;-49
2023/06/08 01:42:53;;;;;;;;;;;;;;;26.04;100.00;99044.81;4989129;28;19972;-51
2023/06/08 01:45:23;;;;;;;;;;;;;;;26.28;100.00;99033.72;4996895;28;19914;-52
2023/06/08 01:47:53;;;;;;;;;;;;;;;26.21;100.00;99027.38;4983980;28;19917;-52
2023/06/08 01:50:18;;;;;;;;;;;;;;;26.20;100.00;99037.06;4990099;28;19964;-51
2023/06/08 01:52:44;;;;;;;;;;;;;;;26.25;100.00;99016.38;4987717;28;19968;-49
2023/06/08 01:55:19;;;;;;;;;;;;;;;26.31;100.00;99014.09;4987733;28;19918;-49
2023/06/08 01:57:44;;;;;;;;;;;;;;;26.33;100.00;99009.50;4996586;28;19952;-49
2023/06/08 02:00:10;;;;;;;;;;;;;;;26.26;100.00;99007.47;4985830;28;19983;-52
2023/06/08 02:02:36;;;;;;;;;;;;;;;26.31;100.00;99000.91;4989732;28;19956;-50
2023/06/08 02:05:01;;;;;;;;;;;;;;;26.24;100.00;99012.06;4974972;28;19918;-52
2023/06/08 02:07:26;;;;;;;;;;;;;;;25.73;100.00;99018.69;4994784;28;19932;-50
2023/06/08 02:09:52;;;;;;;;;;;;;;;25.40;100.00;99034.06;4992777;28;19996;-51
2023/06/08 02:12:17;;;;;;;;;;;;;;;25.43;100.00;99030.31;4989054;28;20044;-50
2023/06/08 02:14:42;;;;;;;;;;;;;;;25.77;100.00;99014.81;4994411;28;20012;-52
2023/06/08 02:17:07;;;;;;;;;;;;;;;26.00;100.00;99003.84;4990797;28;20005;-52
2023/06/08 02:19:32;;;;;;;;;;;;;;;25.84;100.00;99010.59;4983478;28;19965;-50
2023/06/08 02:21:58;;;;;;;;;;;;;;;25.92;100.00;99011.69;4986683;28;19976;-52
2023/06/08 02:24:24;;;;;;;;;;;;;;;25.94;100.00;98999.19;4983969;28;19964;-49
2023/06/08 02:26:52;;;;;;;;;;;;;;;26.02;100.00;98997.47;4991517;28;20007;-51
2023/06/08 02:29:18;;;;;;;;;;;;;;;26.01;100.00;98993.16;4992898;28;19944;-52
2023/06/08 02:31:43;;;;;;;;;;;;;;;26.11;100.00;98990.47;4989490;28;20395;-49
2023/06/08 02:34:08;;;;;;;;;;;;;;;26.00;100.00;99003.84;4994366;28;19921;-51
2023/06/08 02:36:34;;;;;;;;;;;;;;;25.79;100.00;99006.72;4987377;28;19917;-50
2023/06/08 02:38:59;;;;;;;;;;;;;;;25.18;100.00;99008.00;4991219;28;20307;-49
2023/06/08 02:41:25;;;;;;;;;;;;;;;25.91;100.00;99004.75;4989140;28;20142;-50
2023/06/08 02:43:51;;;;;;;;;;;;;;;25.99;100.00;99003.03;4995244;28;19913;-49
2023/06/08 02:46:16;;;;;;;;;;;;;;;25.86;100.00;99008.66;4986960;28;19935;-49
2023/06/08 02:48:41;;;;;;;;;;;;;;;26.06;100.00;98998.00;4990919;28;20004;-52
2023/06/08 02:51:06;;;;;;;;;;;;;;;26.08;100.00;99003.97;4984321;28;20000;-51
2023/06/08 02:53:32;;;;;;;;;;;;;;;25.84;100.00;99010.59;4994290;28;20004;-51
2023/06/08 02:55:58;;;;;;;;;;;;;;;25.78;100.00;99010.34;4992345;28;19917;-51
2023/06/08 02:58:23;;;;;;;;;;;;;;;25.92;100.00;99012.53;4994108;28;20413;-49
2023/06/08 03:00:48;;;;;;;;;;;;;;;26.02;100.00;99015.09;4982935;28;20001;-48
2023/06/08 03:03:14;;;;;;;;;;;;;;;26.08;100.00;99017.16;4985311;28;20000;-51
2023/06/08 03:05:39;;;;;;;;;;;;;;;26.05;100.00;99017.47;4991367;28;19918;-48
2023/06/08 03:08:04;;;;;;;;;;;;;;;26.05;100.00;99023.56;4984926;28;19975;-49
2023/06/08 03:10:29;;;;;;;;;;;;;;;26.17;100.00;99021.56;4995938;28;20366;-48
2023/06/08 03:12:55;;;;;;;;;;;;;;;25.85;100.00;99033.34;4987043;28;20025;-50
2023/06/08 03:15:22;;;;;;;;;;;;;;;25.97;100.00;99020.00;4994718;28;19918;-49
2023/06/08 03:17:48;;;;;;;;;;;;;;;25.95;100.00;99021.94;4994442;28;19980;-49
2023/06/08 03:20:13;;;;;;;;;;;;;;;26.01;100.00;99016.09;4986016;28;19925;-48
2023/06/08 03:22:41;;;;;;;;;;;;;;;25.87;100.00;99020.06;4997000;28;19921;-48
2023/06/08 03:25:07;;;;;;;;;;;;;;;26.05;100.00;99015.66;4992175;28;19969;-51
2023/06/08 03:27:32;;;;;;;;;;;;;;;26.00;100.00;99003.84;4997567;28;20740;-49
2023/06/08 03:29:58;;;;;;;;;;;;;;;25.90;100.00;99011.00;4996008;28;19925;-51
2023/06/08 03:32:23;;;;;;;;;;;;;;;25.84;100.00;99021.16;4985940;28;20359;-48
2023/06/08 03:34:50;;;;;;;;;;;;;;;25.94;100.00;99017.66;4998207;28;19921;-49
2023/06/08 03:37:15;;;;;;;;;;;;;;;26.02;100.00;99008.03;4990726;28;19917;-49
2023/06/08 03:39:40;;;;;;;;;;;;;;;26.04;100.00;99021.06;4987390;28;19976;-49
2023/06/08 03:42:05;;;;;;;;;;;;;;;25.66;100.00;99018.44;4994444;28;19927;-49
2023/06/08 03:44:31;;;;;;;;;;;;;;;25.31;100.00;99020.91;4987457;28;19924;-51
2023/06/08 03:46:56;;;;;;;;;;;;;;;25.41;100.00;99030.47;4989097;28;19930;-51
2023/06/08 03:49:21;;;;;;;;;;;;;;;25.87;100.00;99015.59;4992803;28;19922;-48
2023/06/08 03:51:46;;;;;;;;;;;;;;;24.51;100.00;99041.31;4991572;28;19922;-51
2023/06/08 03:54:12;;;;;;;;;;;;;;;24.39;100.00;99043.22;4991249;28;20375;-48
2023/06/08 03:56:37;;;;;;;;;;;;;;;24.42;100.00;99038.50;4992126;28;20365;-49
2023/06/08 03:59:02;;;;;;;;;;;;;;;23.56;100.00;99058.25;4998329;28;20462;-51
2023/06/08 04:01:28;;;;;;;;;;;;;;;24.10;100.00;99048.41;4998493;28;20393;-51
2023/06/08 04:03:53;;;;;;;;;;;;;;;24.56;100.00;99028.56;4993368;28;19921;-48
2023/06/08 04:06:19;;;;;;;;;;;;;;;23.39;100.00;99068.41;4999194;28;19971;-50
2023/06/08 04:08:44;;;;;;;;;;;;;;;24.36;100.00;99043.50;4985806;28;19925;-48
2023/06/08 04:11:10;;;;;;;;;;;;;;;23.61;100.00;99069.22;4988526;28;19917;-49
2023/06/08 04:13:36;;;;;;;;;;;;;;;24.94;100.00;99021.66;4993004;28;19918;-48
2023/06/08 04:16:03;;;;;;;;;;;;;;;24.59;100.00;99018.59;4982774;28;19932;-48
2023/06/08 04:18:29;;;;;;;;;;;;;;;25.62;100.00;98992.50;4992969;28;19917;-50
2023/06/08 04:20:54;;;;;;;;;;;;;;;25.52;100.00;99005.75;4997006;28;19917;-48
2023/06/08 04:23:19;;;;;;;;;;;;;;;25.74;100.00;99009.78;4989831;28;20287;-48
2023/06/08 04:25:46;;;;;;;;;;;;;;;24.74;100.00;99042.72;4996679;28;20370;-48
2023/06/08 04:28:12;;;;;;;;;;;;;;;25.44;100.00;99013.53;4985059;28;19956;-47
2023/06/08 04:30:37;;;;;;;;;;;;;;;25.07;100.00;99024.00;4992730;28;20015;-49
2023/06/08 04:33:03;;;;;;;;;;;;;;;24.74;100.00;99041.88;4995117;28;20063;-50
2023/06/08 04:35:28;;;;;;;;;;;;;;;24.47;100.00;99040.75;4990365;28;19921;-48
2023/06/08 04:37:53;;;;;;;;;;;;;;;24.79;100.00;99023.84;4993440;28;19929;-48
2023/06/08 04:40:19;;;;;;;;;;;;;;;24.28;100.00;99040.69;4988768;28;19917;-48
2023/06/08 04:42:45;;;;;;;;;;;;;;;25.14;100.00;99006.66;4992333;28;19925;-50
2023/06/08 04:45:11;;;;;;;;;;;;;;;24.97;100.00;99005.53;4999290;28;19922;-48
2023/06/08 04:47:36;;;;;;;;;;;;;;;23.46;100.00;99065.25;4986205;28;20299;-49
2023/06/08 04:50:07;;;;;;;;;;;;;;;24.16;100.00;99056.59;4991797;28;19928;-48
2023/06/08 04:52:40;;;;;;;;;;;;;;;22.46;100.00;99078.66;4989662;28;19972;-48
2023/06/08 04:55:06;;;;;;;;;;;;;;;23.21;100.00;99062.06;4990948;28;19922;-50
2023/06/08 04:57:31;;;;;;;;;;;;;;;22.96;100.00;99077.19;5001764;28;20040;-48
2023/06/08 04:59:57;;;;;;;;;;;;;;;23.31;100.00;99057.72;4988126;28;20378;-48
2023/06/08 05:02:22;;;;;;;;;;;;;;;24.05;100.00;99056.72;4991183;28;20366;-48
2023/06/08 05:04:48;;;;;;;;;;;;;;;24.01;100.00;99060.56;4993694;28;19922;-48
2023/06/08 05:07:13;;;;;;;;;;;;;;;23.31;100.00;99056.88;4986802;28;19922;-50
2023/06/08 05:09:39;;;;;;;;;;;;;;;22.48;100.00;99074.97;4983102;28;19918;-48
2023/06/08 05:12:05;;;;;;;;;;;;;;;22.48;100.00;99069.72;4994518;28;19961;-49
2023/06/08 05:14:30;;;;;;;;;;;;;;;22.25;100.00;99074.19;4984669;28;20024;-48
2023/06/08 05:16:56;;;;;;;;;;;;;;;23.96;100.00;99046.97;4983582;28;19968;-48
2023/06/08 05:19:21;;;;;;;;;;;;;;;24.55;100.00;99035.66;4987082;28;19914;-50
2023/06/08 05:21:46;;;;;;;;;;;;;;;22.13;100.00;99083.81;4985415;28;20009;-50
2023/06/08 05:24:11;;;;;;;;;;;;;;;22.81;100.00;99075.84;4997038;28;20004;-49
2023/06/08 05:26:39;;;;;;;;;;;;;;;22.50;100.00;99072.22;4984907;28;20473;-50
2023/06/08 05:29:04;;;;;;;;;;;;;;;22.71;100.00;99069.66;4987204;28;19997;-47
2023/06/08 05:31:29;;;;;;;;;;;;;;;22.39;100.00;99082.75;4986586;28;20038;-50
2023/06/08 05:33:55;;;;;;;;;;;;;;;23.41;100.00;99059.56;4983903;28;19932;-47
2023/06/08 05:36:20;;;;;;;;;;;;;;;23.52;100.00;99048.97;4994958;28;20409;-49
2023/06/08 05:38:45;;;;;;;;;;;;;;;23.11;100.00;99077.75;4983591;28;19922;-49
2023/06/08 05:41:10;;;;;;;;;;;;;;;22.50;100.00;99085.34;4985610;28;19913;-49
2023/06/08 05:43:35;;;;;;;;;;;;;;;22.52;100.00;99079.03;4985223;28;19921;-48
2023/06/08 05:46:01;;;;;;;;;;;;;;;22.18;100.00;99085.25;4985840;28;19932;-48
2023/06/08 05:48:26;;;;;;;;;;;;;;;22.50;100.00;99087.97;4997326;28;19921;-48
2023/06/08 05:50:51;;;;;;;;;;;;;;;22.21;100.00;99087.63;4994100;28;19960;-49
2023/06/08 05:53:16;;;;;;;;;;;;;;;23.41;100.00;99073.53;4987408;28;19956;-48
2023/06/08 05:55:42;;;;;;;;;;;;;;;24.78;100.00;99048.56;4999253;28;19955;-48
2023/06/08 05:58:07;;;;;;;;;;;;;;;25.38;100.00;99025.47;4988631;28;19953;-48
2023/06/08 06:00:33;;;;;;;;;;;;;;;24.40;100.00;99047.50;4986314;28;19921;-48
2023/06/08 06:02:58;;;;;;;;;;;;;;;24.76;100.00;99047.84;4993007;28;19956;-48
2023/06/08 06:05:23;;;;;;;;;;;;;;;25.80;100.00;99035.59;4995521;28;19918;-49
2023/06/08 06:07:48;;;;;;;;;;;;;;;22.54;100.00;99098.09;4988717;28;19925;-47
2023/06/08 06:10:14;;;;;;;;;;;;;;;23.17;100.00;99087.78;4992748;28;19922;-48
2023/06/08 06:12:39;;;;;;;;;;;;;;;24.15;100.00;99078.63;4986351;28;19945;-48
2023/06/08 06:15:05;;;;;;;;;;;;;;;24.80;100.00;99067.69;4986850;28;19936;-49
2023/06/08 06:17:30;;;;;;;;;;;;;;;23.72;100.00;99087.56;4991961;28;20464;-50
2023/06/08 06:19:55;;;;;;;;;;;;;;;23.74;100.00;99074.25;4985414;28;19917;-50
2023/06/08 06:22:21;;;;;;;;;;;;;;;22.65;100.00;99101.66;5000007;28;19921;-49
2023/06/08 06:24:46;;;;;;;;;;;;;;;22.96;100.00;99100.81;4988807;28;20044;-49
2023/06/08 06:27:11;;;;;;;;;;;;;;;23.64;100.00;99095.25;4986327;28;19953;-50
2023/06/08 06:29:36;;;;;;;;;;;;;;;25.30;100.00;99064.91;4991115;28;19928;-48
2023/06/08 06:32:02;;;;;;;;;;;;;;;24.90;100.00;99075.56;4982334;28;19922;-50
2023/06/08 06:34:27;;;;;;;;;;;;;;;25.94;100.00;99030.84;4997066;28;19929;-48
2023/06/08 06:36:52;;;;;;;;;;;;;;;24.66;100.00;99049.66;4991201;28;19938;-50
2023/06/08 06:39:18;;;;;;;;;;;;;;;24.79;100.00;99071.28;4985351;28;19917;-51
2023/06/08 06:41:43;;;;;;;;;;;;;;;25.78;100.00;99036.72;4988690;28;20256;-51
2023/06/08 06:44:08;;;;;;;;;;;;;;;25.54;100.00;99053.88;4987974;28;19921;-48
2023/06/08 06:46:33;;;;;;;;;;;;;;;26.45;100.00;99022.31;4986138;28;19921;-50
2023/06/08 06:48:59;;;;;;;;;;;;;;;23.70;100.00;99105.25;4989508;28;19968;-50
2023/06/08 06:51:25;;;;;;;;;;;;;;;24.67;100.00;99098.72;4992297;28;19976;-48
2023/06/08 06:53:50;;;;;;;;;;;;;;;23.39;100.00;99107.81;4990287;28;19913;-50
2023/06/08 06:56:15;;;;;;;;;;;;;;;24.80;100.00;99080.84;4987637;28;20270;-48
2023/06/08 06:58:44;;;;;;;;;;;;;;;25.06;100.00;99075.84;4994750;28;20287;-48
2023/06/08 07:01:12;;;;;;;;;;;;;;;24.81;100.00;99072.81;4982161;28;20323;-51
2023/06/08 07:03:40;;;;;;;;;;;;;;;25.95;100.00;99049.16;4988880;28;20335;-49
2023/06/08 07:06:05;;;;;;;;;;;;;;;25.01;100.00;99071.00;4989696;28;20084;-48
2023/06/08 07:08:30;;;;;;;;;;;;;;;26.29;100.00;99030.91;4984526;28;20859;-50
2023/06/08 07:10:57;;;;;;;;;;;;;;;25.91;100.00;99034.63;4993265;28;19921;-49
2023/06/08 07:13:22;;;;;;;;;;;;;;;24.25;100.00;99067.31;4990796;28;20078;-49
2023/06/08 07:15:47;;;;;;;;;;;;;;;24.08;100.00;99095.06;4983241;28;19921;-49
2023/06/08 07:18:13;;;;;;;;;;;;;;;25.71;100.00;99073.41;4986207;28;19918;-51
2023/06/08 07:20:38;;;;;;;;;;;;;;;26.16;100.00;99046.31;4991320;28;20351;-48
2023/06/08 07:23:03;;;;;;;;;;;;;;;23.76;100.00;99088.97;4982319;28;20371;-49
2023/06/08 07:25:28;;;;;;;;;;;;;;;26.27;100.00;99046.09;4993584;28;19921;-50
2023/06/08 07:27:53;;;;;;;;;;;;;;;26.67;100.00;99036.94;4985925;28;19918;-50
2023/06/08 07:30:19;;;;;;;;;;;;;;;27.03;100.00;99010.47;4986930;28;19929;-49
2023/06/08 07:32:45;;;;;;;;;;;;;;;27.11;100.00;99031.66;4993500;28;21014;-51
2023/06/08 07:35:11;;;;;;;;;;;;;;;27.20;100.00;99023.81;4981930;28;19922;-51
2023/06/08 07:37:36;;;;;;;;;;;;;;;29.23;100.00;98986.66;4987972;28;19925;-50
2023/06/08 07:40:05;;;;;;;;;;;;;;;26.19;100.00;99030.16;4987549;28;19929;-49
2023/06/08 07:42:30;;;;;;;;;;;;;;;27.47;100.00;99028.97;4988996;28;19956;-49
2023/06/08 07:44:55;;;;;;;;;;;;;;;26.09;100.00;99055.75;4994717;28;19972;-48
2023/06/08 07:47:21;;;;;;;;;;;;;;;26.68;100.00;99043.03;4985526;28;19965;-49
2023/06/08 07:49:46;;;;;;;;;;;;;;;27.11;100.00;99055.47;4985509;28;19932;-49
2023/06/08 07:52:11;;;;;;;;;;;;;;;27.36;100.00;99029.22;4989085;28;19921;-50
2023/06/08 07:54:36;;;;;;;;;;;;;;;27.36;100.00;99034.50;4983449;28;20016;-49
2023/06/08 07:57:01;;;;;;;;;;;;;;;27.62;100.00;99009.84;4988371;28;20298;-52
2023/06/08 07:59:28;;;;;;;;;;;;;;;27.29;100.00;99028.19;4993110;28;20457;-51
2023/06/08 08:01:53;;;;;;;;;;;;;;;27.60;100.00;99012.69;4986512;28;20012;-51
2023/06/08 08:04:18;;;;;;;;;;;;;;;26.77;100.00;99041.31;4994352;28;20012;-52
2023/06/08 08:06:44;;;;;;;;;;;;;;;28.09;100.00;99014.72;4992045;28;20000;-49
2023/06/08 08:09:09;;;;;;;;;;;;;;;26.77;100.00;99013.06;4992185;28;20036;-48
2023/06/08 08:11:35;;;;;;;;;;;;;;;26.53;100.00;99026.88;4986195;28;19922;-52
2023/06/08 08:14:00;;;;;;;;;;;;;;;25.84;100.00;99062.50;4984606;28;20749;-49
2023/06/08 08:16:26;;;;;;;;;;;;;;;27.89;100.00;99004.38;4994494;28;19920;-49
2023/06/08 08:18:51;;;;;;;;;;;;;;;29.07;100.00;98975.06;4992488;28;19996;-47
2023/06/08 08:21:16;;;;;;;;;;;;;;;30.57;100.00;98959.97;4989751;28;20288;-48
2023/06/08 08:23:41;;;;;;;;;;;;;;;28.22;100.00;98993.06;4999787;28;19977;-48
2023/06/08 08:26:07;;;;;;;;;;;;;;;26.91;100.00;99019.63;4993070;28;19933;-48
2023/06/08 08:28:33;;;;;;;;;;;;;;;27.80;100.00;99015.06;4987581;28;19928;-51
2023/06/08 08:30:59;;;;;;;;;;;;;;;27.61;100.00;98989.69;4996978;28;19921;-48
2023/06/08 08:33:26;;;;;;;;;;;;;;;27.25;100.00;99018.91;4988900;28;20455;-48
2023/06/08 08:35:51;;;;;;;;;;;;;;;29.24;100.00;98977.69;4991121;28;19917;-49
2023/06/08 08:38:17;;;;;;;;;;;;;;;27.24;100.00;99004.03;4996535;28;19921;-52
2023/06/08 08:40:42;;;;;;;;;;;;;;;28.20;100.00;99001.16;4987546;28;19917;-49
2023/06/08 08:43:18;;;;;;;;;;;;;;;26.78;100.00;99016.56;4994536;28;20722;-50
2023/06/08 08:45:44;;;;;;;;;;;;;;;28.83;100.00;98986.53;4990252;28;19933;-51
2023/06/08 08:48:12;;;;;;;;;;;;;;;29.17;100.00;98967.78;4984089;28;19918;-49
2023/06/08 08:50:38;;;;;;;;;;;;;;;29.43;100.00;98979.97;4995275;28;19921;-50
2023/06/08 08:53:04;;;;;;;;;;;;;;;27.59;100.00;99007.53;4986040;28;19922;-49
2023/06/08 08:55:33;;;;;;;;;;;;;;;30.03;100.00;98966.13;4991552;28;19917;-49
2023/06/08 08:58:02;;;;;;;;;;;;;;;27.25;100.00;99005.69;4997179;28;19918;-49
2023/06/08 09:00:27;;;;;;;;;;;;;;;27.95;100.00;98976.44;4989153;28;19921;-49
2023/06/08 09:02:53;;;;;;;;;;;;;;;29.26;100.00;98973.88;4994738;28;20366;-49
2023/06/08 09:05:18;;;;;;;;;;;;;;;30.70;100.00;98935.44;4983491;28;19932;-48
2023/06/08 09:07:43;;;;;;;;;;;;;;;28.10;100.00;99003.13;4987966;28;19969;-48
2023/06/08 09:10:11;;;;;;;;;;;;;;;27.91;100.00;98991.00;4996612;28;19918;-50
2023/06/08 09:12:37;;;;;;;;;;;;;;;30.33;100.00;98937.06;4988417;28;19945;-48
2023/06/08 09:15:03;;;;;;;;;;;;;;;29.54;100.00;98950.41;4986941;28;19922;-52
2023/06/08 09:17:37;;;;;;;;;;;;;;;29.69;100.00;98939.91;4987831;28;19974;-50
2023/06/08 09:20:02;;;;;;;;;;;;;;;31.14;100.00;98928.56;4988329;28;19921;-48
2023/06/08 09:22:28;;;;;;;;;;;;;;;30.38;100.00;98937.38;4984638;28;19926;-49
2023/06/08 09:24:55;;;;;;;;;;;;;;;29.93;100.00;98970.00;4992539;28;19924;-49
2023/06/08 09:27:25;;;;;;;;;;;;;;;29.67;100.00;98970.25;4984886;28;20329;-50
2023/06/08 09:29:54;;;;;;;;;;;;;;;30.88;100.00;98934.28;4999184;28;19913;-49
2023/06/08 09:32:25;;;;;;;;;;;;;;;30.27;100.00;98945.75;4986601;28;19922;-48
2023/06/08 09:34:55;;;;;;;;;;;;;;;29.95;100.00;98947.59;4993011;28;19928;-51
2023/06/08 09:37:30;;;;;;;;;;;;;;;31.62;98.62;98913.84;4987404;28;20840;-49
2023/06/08 09:39:56;;;;;;;;;;;;;;;28.50;100.00;98969.78;4983423;28;19926;-50
2023/06/08 09:42:21;;;;;;;;;;;;;;;29.48;100.00;98953.75;4996082;28;19976;-49
2023/06/08 09:44:46;;;;;;;;;;;;;;;27.98;100.00;98985.88;4984485;28;20020;-48
2023/06/08 09:47:27;;;;;;;;;;;;;;;29.30;100.00;98956.63;4991207;28;19928;-47
2023/06/08 09:49:53;;;;;;;;;;;;;;;30.66;100.00;98912.88;4989440;28;19928;-49
2023/06/08 09:52:19;;;;;;;;;;;;;;;31.08;100.00;98935.41;4986927;28;19953;-50
2023/06/08 09:54:45;;;;;;;;;;;;;;;30.94;100.00;98926.41;4992947;28;19928;-50
2023/06/08 09:57:10;;;;;;;;;;;;;;;29.05;100.00;98963.78;4994965;28;19917;-48
2023/06/08 09:59:41;;;;;;;;;;;;;;;30.11;100.00;98949.31;4991233;28;19913;-51
2023/06/08 10:02:29;;;;;;;;;;;;;;;32.42;100.00;98906.69;4999521;28;20290;-49
2023/06/08 10:04:55;;;;;;;;;;;;;;;30.95;100.00;98936.06;4983446;28;19936;-49
2023/06/08 10:07:29;;;;;;;;;;;;;;;31.16;100.00;98927.34;4990259;28;19925;-51
2023/06/08 10:09:59;;;;;;;;;;;;;;;30.96;100.00;98915.59;4988242;28;19917;-51
2023/06/08 10:12:26;;;;;;;;;;;;;;;32.77;93.82;98869.44;4988275;28;21016;-52
2023/06/08 10:14:52;;;;;;;;;;;;;;;31.25;98.35;98915.63;4994873;28;19925;-52
2023/06/08 10:17:17;;;;;;;;;;;;;;;30.81;100.00;98926.19;4983334;28;19921;-50
2023/06/08 10:19:42;;;;;;;;;;;;;;;30.63;100.00;98931.81;4985391;28;19928;-49
2023/06/08 10:22:08;;;;;;;;;;;;;;;31.38;100.00;98932.75;4994713;28;19918;-51
2023/06/08 10:24:33;;;;;;;;;;;;;;;30.81;100.00;98911.09;4987332;28;20564;-52
2023/06/08 10:27:18;;;;;;;;;;;;;;;31.04;100.00;98912.84;4991432;28;19921;-51
2023/06/08 10:29:52;;;;;;;;;;;;;;;32.97;93.13;98866.88;4979901;28;19928;-52
2023/06/08 10:32:17;;;;;;;;;;;;;;;33.89;91.33;98867.47;4986711;28;19925;-51
2023/06/08 10:34:42;;;;;;;;;;;;;;;32.23;92.58;98896.69;4985073;28;19921;-49
2023/06/08 10:37:27;;;;;;;;;;;;;;;30.72;95.71;98916.63;4988162;28;20000;-50
2023/06/08 10:39:52;;;;;;;;;;;;;;;30.33;99.81;98926.44;4988110;28;19917;-49
2023/06/08 10:42:20;;;;;;;;;;;;;;;30.83;96.20;98917.00;4990365;28;19924;-51
2023/06/08 10:44:54;;;;;;;;;;;;;;;34.11;94.58;98868.97;4984684;28;20021;-49
2023/06/08 10:47:19;;;;;;;;;;;;;;;31.11;91.76;98897.81;4995784;28;20457;-50
2023/06/08 10:49:46;;;;;;;;;;;;;;;31.22;97.23;98905.31;4990970;28;20455;-48
2023/06/08 10:52:16;;;;;;;;;;;;;;;31.73;98.54;98911.72;4990017;28;19924;-49
2023/06/08 10:54:48;;;;;;;;;;;;;;;33.83;92.13;98861.09;4986865;28;19917;-50
2023/06/08 10:57:13;;;;;;;;;;;;;;;31.27;96.00;98908.28;4987155;28;20363;-49
2023/06/08 10:59:38;;;;;;;;;;;;;;;31.83;97.45;98894.41;4990487;28;19928;-52
2023/06/08 11:02:04;;;;;;;;;;;;;;;32.80;93.25;98858.38;4994855;28;19917;-49
2023/06/08 11:04:30;;;;;;;;;;;;;;;32.30;93.86;98881.56;4980371;28;19917;-52
2023/06/08 11:07:05;;;;;;;;;;;;;;;32.46;92.45;98865.31;4987304;28;19927;-51
2023/06/08 11:09:34;;;;;;;;;;;;;;;32.33;95.55;98875.84;4980445;28;19918;-52
2023/06/08 11:11:59;;;;;;;;;;;;;;;31.32;93.06;98882.94;4987498;28;19917;-52
2023/06/08 11:14:25;;;;;;;;;;;;;;;32.02;96.37;98887.69;4991372;28;19932;-50
2023/06/08 11:16:51;;;;;;;;;;;;;;;31.87;95.77;98873.56;4983760;28;19924;-52
2023/06/08 11:19:17;;;;;;;;;;;;;;;32.13;95.05;98859.69;4988134;28;20322;-52
2023/06/08 11:21:44;;;;;;;;;;;;;;;31.63;95.74;98880.88;4992303;28;20008;-49
2023/06/08 11:24:09;;;;;;;;;;;;;;;31.30;97.33;98890.28;4985195;28;19917;-52
2023/06/08 11:26:36;;;;;;;;;;;;;;;33.41;93.61;98843.50;4981973;28;19926;-49
2023/06/08 11:29:01;;;;;;;;;;;;;;;32.11;94.86;98863.56;4980220;28;20001;-52
2023/06/08 11:31:31;;;;;;;;;;;;;;;33.02;91.32;98831.59;4986862;28;20818;-52
2023/06/08 11:33:56;;;;;;;;;;;;;;;35.33;86.45;98809.69;4986091;28;20374;-53
2023/06/08 11:36:22;;;;;;;;;;;;;;;32.50;89.16;98847.91;4987676;28;20012;-52
2023/06/08 11:38:48;;;;;;;;;;;;;;;31.68;92.64;98856.34;4984347;28;20040;-52
2023/06/08 11:41:13;;;;;;;;;;;;;;;34.20;86.08;98809.97;4995992;28;20004;-52
2023/06/08 11:43:38;;;;;;;;;;;;;;;32.42;86.87;98826.72;4987780;28;19996;-52
2023/06/08 11:46:04;;;;;;;;;;;;;;;31.15;92.03;98855.69;4993701;28;19957;-50
2023/06/08 11:48:29;;;;;;;;;;;;;;;32.64;87.59;98813.34;4985984;28;20023;-51
2023/06/08 11:50:54;;;;;;;;;;;;;;;32.26;88.84;98811.84;4991230;28;19918;-51
2023/06/08 11:53:22;;;;;;;;;;;;;;;31.82;86.05;98820.06;4990210;28;20605;-51
2023/06/08 11:55:48;;;;;;;;;;;;;;;32.09;89.09;98829.97;4992071;28;20350;-51
2023/06/08 11:58:14;;;;;;;;;;;;;;;34.99;87.67;98796.44;4993396;28;19975;-49
2023/06/08 12:00:39;;;;;;;;;;;;;;;34.26;77.20;98766.34;4991306;28;19922;-51
2023/06/08 12:03:04;;;;;;;;;;;;;;;33.05;83.06;98789.38;4990270;28;19952;-52
2023/06/08 12:05:30;;;;;;;;;;;;;;;32.16;79.33;98773.22;4991842;28;20491;-52
2023/06/08 12:07:56;;;;;;;;;;;;;;;33.41;75.29;98750.06;4990383;28;19937;-52
2023/06/08 12:10:22;;;;;;;;;;;;;;;33.87;76.69;98760.81;4983739;28;19921;-52
2023/06/08 12:12:48;;;;;;;;;;;;;;;35.97;67.77;98711.34;4996565;28;19917;-52
2023/06/08 12:15:16;;;;;;;;;;;;;;;34.43;70.48;98748.84;4987855;28;19932;-52
2023/06/08 12:17:42;;;;;;;;;;;;;;;33.81;72.25;98750.13;4984536;28;19967;-53
2023/06/08 12:20:08;;;;;;;;;;;;;;;35.85;68.86;98723.84;4990208;28;20525;-52
2023/06/08 12:22:33;;;;;;;;;;;;;;;34.06;70.26;98745.81;4983800;28;19979;-52
2023/06/08 12:24:59;;;;;;;;;;;;;;;33.83;68.05;98729.38;4990022;28;19917;-53
2023/06/08 12:27:25;;;;;;;;;;;;;;;34.43;67.76;98734.66;4998599;28;20377;-52
2023/06/08 12:29:50;;;;;;;;;;;;;;;33.78;68.48;98746.03;4984879;28;20380;-53
2023/06/08 12:32:16;;;;;;;;;;;;;;;35.93;67.81;98727.06;4997917;28;19917;-51
2023/06/08 12:34:41;;;;;;;;;;;;;;;32.01;73.53;98775.97;4991261;28;19929;-52